createdAt,value
2023-03-26T00:00:24.024Z,0.00
2023-03-26T00:01:23.976Z,0.00
2023-03-26T00:02:24.054Z,0.00
2023-03-26T00:03:23.974Z,0.00
2023-03-26T00:04:23.921Z,0.00
2023-03-26T00:05:24.004Z,0.00
2023-03-26T00:06:23.872Z,0.00
2023-03-26T00:07:23.879Z,0.00
2023-03-26T00:08:23.952Z,0.00
2023-03-26T00:09:23.874Z,0.00
2023-03-26T00:10:23.878Z,0.00
2023-03-26T00:11:23.899Z,0.00
2023-03-26T00:12:23.832Z,0.00
2023-03-26T00:13:23.856Z,0.00
2023-03-26T00:14:23.961Z,0.00
2023-03-26T00:15:23.885Z,0.00
2023-03-26T00:16:23.709Z,0.00
2023-03-26T00:17:23.925Z,0.00
2023-03-26T00:18:23.912Z,0.00
2023-03-26T00:19:23.841Z,0.00
2023-03-26T00:20:23.846Z,0.00
2023-03-26T00:21:23.833Z,0.00
2023-03-26T00:22:23.925Z,0.00
2023-03-26T00:23:23.712Z,0.00
2023-03-26T00:24:23.727Z,0.00
2023-03-26T00:25:23.732Z,0.00
2023-03-26T00:26:23.731Z,0.00
2023-03-26T00:27:23.861Z,0.00
2023-03-26T00:28:23.727Z,0.00
2023-03-26T00:29:23.834Z,0.00
2023-03-26T00:30:23.716Z,0.00
2023-03-26T00:31:23.659Z,0.00
2023-03-26T00:32:23.679Z,0.00
2023-03-26T00:33:23.608Z,0.00
2023-03-26T00:34:23.717Z,0.00
2023-03-26T00:35:23.727Z,0.00
2023-03-26T00:36:23.689Z,0.00
2023-03-26T00:37:23.636Z,0.00
2023-03-26T00:38:23.635Z,0.00
2023-03-26T00:39:23.638Z,0.00
2023-03-26T00:40:23.575Z,0.00
2023-03-26T00:41:23.583Z,0.00
2023-03-26T00:42:23.608Z,0.00
2023-03-26T00:43:23.540Z,0.00
2023-03-26T00:44:23.625Z,0.00
2023-03-26T00:45:23.542Z,0.00
2023-03-26T00:46:23.519Z,0.00
2023-03-26T00:47:23.512Z,0.00
2023-03-26T00:48:31.607Z,0.00
2023-03-26T00:49:23.502Z,0.00
2023-03-26T00:50:23.524Z,0.00
2023-03-26T00:51:23.468Z,0.00
2023-03-26T00:52:23.562Z,0.00
2023-03-26T00:53:23.497Z,0.00
2023-03-26T00:54:23.467Z,0.00
2023-03-26T00:55:23.527Z,0.00
2023-03-26T00:56:23.438Z,0.00
2023-03-26T00:57:34.991Z,0.00
2023-03-26T00:58:23.395Z,0.00
2023-03-26T00:59:23.361Z,0.00
2023-03-26T01:00:23.372Z,0.00
2023-03-26T01:01:23.454Z,0.00
2023-03-26T01:02:23.440Z,0.00
2023-03-26T01:03:27.447Z,0.00
2023-03-26T01:04:23.438Z,0.00
2023-03-26T01:05:23.348Z,0.00
2023-03-26T01:06:23.347Z,0.00
2023-03-26T01:07:23.347Z,0.00
2023-03-26T01:08:23.258Z,0.00
2023-03-26T01:09:23.255Z,0.00
2023-03-26T01:10:23.247Z,0.00
2023-03-26T01:11:23.244Z,0.00
2023-03-26T01:12:23.328Z,0.00
2023-03-26T01:13:23.390Z,0.00
2023-03-26T01:14:23.261Z,0.00
2023-03-26T01:15:23.260Z,0.00
2023-03-26T01:16:23.342Z,0.00
2023-03-26T01:17:23.368Z,0.00
2023-03-26T01:18:23.234Z,0.00
2023-03-26T01:19:23.244Z,0.00
2023-03-26T01:20:23.239Z,0.00
2023-03-26T01:21:23.222Z,0.00
2023-03-26T01:22:23.021Z,0.00
2023-03-26T01:23:23.133Z,0.00
2023-03-26T01:24:23.141Z,0.00
2023-03-26T01:25:23.206Z,0.00
2023-03-26T01:26:23.122Z,0.00
2023-03-26T01:27:23.128Z,0.00
2023-03-26T01:28:23.148Z,0.00
2023-03-26T01:29:22.970Z,0.00
2023-03-26T01:30:23.185Z,0.00
2023-03-26T01:31:23.103Z,0.00
2023-03-26T01:32:23.346Z,0.00
2023-03-26T01:33:23.246Z,0.00
2023-03-26T01:34:23.078Z,0.00
2023-03-26T01:35:23.193Z,0.00
2023-03-26T01:36:23.121Z,0.00
2023-03-26T01:37:22.969Z,0.00
2023-03-26T01:38:23.304Z,0.00
2023-03-26T01:39:22.842Z,0.00
2023-03-26T01:40:22.937Z,0.00
2023-03-26T01:41:22.948Z,0.00
2023-03-26T01:42:23.032Z,0.00
2023-03-26T01:43:22.887Z,0.00
2023-03-26T01:44:22.962Z,0.00
2023-03-26T01:45:22.869Z,0.00
2023-03-26T01:46:22.919Z,0.00
2023-03-26T01:47:22.929Z,0.00
2023-03-26T01:48:22.881Z,0.00
2023-03-26T01:49:22.964Z,0.00
2023-03-26T01:50:22.811Z,0.00
2023-03-26T01:51:22.847Z,0.00
2023-03-26T01:52:22.692Z,0.00
2023-03-26T01:53:22.899Z,0.00
2023-03-26T01:54:22.841Z,0.00
2023-03-26T01:55:22.638Z,0.00
2023-03-26T01:56:22.843Z,0.00
2023-03-26T01:57:22.756Z,0.00
2023-03-26T01:58:22.743Z,0.00
2023-03-26T01:59:22.790Z,0.00
2023-03-26T02:00:22.827Z,0.00
2023-03-26T02:01:22.796Z,0.00
2023-03-26T02:02:22.884Z,0.00
2023-03-26T02:03:22.837Z,0.00
2023-03-26T02:04:22.722Z,0.00
2023-03-26T02:05:22.684Z,0.00
2023-03-26T02:06:22.811Z,0.00
2023-03-26T02:07:22.781Z,0.00
2023-03-26T02:08:22.738Z,0.00
2023-03-26T02:09:22.783Z,0.00
2023-03-26T02:10:22.708Z,0.00
2023-03-26T02:11:23.289Z,0.00
2023-03-26T02:12:22.619Z,0.00
2023-03-26T02:13:22.739Z,0.00
2023-03-26T02:14:22.586Z,0.00
2023-03-26T02:15:22.612Z,0.00
2023-03-26T02:16:22.640Z,0.00
2023-03-26T02:17:22.586Z,0.00
2023-03-26T02:18:22.573Z,0.00
2023-03-26T02:19:22.506Z,0.00
2023-03-26T02:20:22.525Z,0.00
2023-03-26T02:21:22.617Z,0.00
2023-03-26T02:22:22.542Z,0.00
2023-03-26T02:23:22.652Z,0.00
2023-03-26T02:24:22.517Z,0.00
2023-03-26T02:25:22.519Z,0.00
2023-03-26T02:26:22.330Z,0.00
2023-03-26T02:27:22.451Z,0.00
2023-03-26T02:28:22.545Z,0.00
2023-03-26T02:29:22.460Z,0.00
2023-03-26T02:30:22.463Z,0.00
2023-03-26T02:31:22.401Z,0.00
2023-03-26T02:32:22.428Z,0.00
2023-03-26T02:33:22.393Z,0.00
2023-03-26T02:34:22.446Z,0.00
2023-03-26T02:35:22.567Z,0.00
2023-03-26T02:36:22.431Z,0.00
2023-03-26T02:37:22.387Z,0.00
2023-03-26T02:38:22.321Z,0.00
2023-03-26T02:39:22.404Z,0.00
2023-03-26T02:40:22.414Z,0.00
2023-03-26T02:41:22.289Z,0.00
2023-03-26T02:42:22.380Z,0.00
2023-03-26T02:43:22.316Z,0.00
2023-03-26T02:44:22.313Z,0.00
2023-03-26T02:45:22.323Z,0.00
2023-03-26T02:46:22.309Z,0.00
2023-03-26T02:47:22.267Z,0.00
2023-03-26T02:48:22.237Z,0.00
2023-03-26T02:49:22.239Z,0.00
2023-03-26T02:50:22.318Z,0.00
2023-03-26T02:51:22.233Z,0.00
2023-03-26T02:52:22.063Z,0.00
2023-03-26T02:53:22.034Z,0.00
2023-03-26T02:54:22.237Z,0.00
2023-03-26T02:55:22.229Z,0.00
2023-03-26T02:56:22.305Z,0.00
2023-03-26T02:57:22.152Z,0.00
2023-03-26T02:58:22.193Z,0.00
2023-03-26T02:59:22.206Z,0.00
2023-03-26T03:00:22.245Z,0.00
2023-03-26T03:01:22.137Z,0.00
2023-03-26T03:02:22.151Z,0.00
2023-03-26T03:03:22.175Z,0.00
2023-03-26T03:04:21.954Z,0.00
2023-03-26T03:05:22.108Z,0.00
2023-03-26T03:06:22.089Z,0.00
2023-03-26T03:07:22.055Z,0.00
2023-03-26T03:08:22.112Z,0.00
2023-03-26T03:09:21.847Z,0.00
2023-03-26T03:10:22.029Z,0.00
2023-03-26T03:11:22.260Z,0.00
2023-03-26T03:12:21.842Z,0.00
2023-03-26T03:13:21.978Z,0.00
2023-03-26T03:14:22.012Z,0.00
2023-03-26T03:15:21.960Z,0.00
2023-03-26T03:16:21.968Z,0.00
2023-03-26T03:17:22.021Z,0.00
2023-03-26T03:18:22.010Z,0.00
2023-03-26T03:19:21.922Z,0.00
2023-03-26T03:20:21.900Z,0.00
2023-03-26T03:21:21.891Z,0.00
2023-03-26T03:22:21.870Z,0.00
2023-03-26T03:23:21.847Z,0.00
2023-03-26T03:24:21.933Z,0.00
2023-03-26T03:25:21.860Z,0.00
2023-03-26T03:26:21.884Z,0.00
2023-03-26T03:27:21.887Z,0.00
2023-03-26T03:28:21.881Z,0.00
2023-03-26T03:29:21.967Z,0.00
2023-03-26T03:30:21.823Z,0.00
2023-03-26T03:31:21.887Z,0.00
2023-03-26T03:32:21.856Z,0.00
2023-03-26T03:33:21.758Z,0.00
2023-03-26T03:34:21.899Z,0.00
2023-03-26T03:35:21.828Z,0.00
2023-03-26T03:36:21.807Z,0.00
2023-03-26T03:37:21.713Z,0.00
2023-03-26T03:38:21.802Z,0.00
2023-03-26T03:39:21.815Z,0.00
2023-03-26T03:40:21.662Z,0.00
2023-03-26T03:41:21.755Z,0.00
2023-03-26T03:42:21.681Z,0.00
2023-03-26T03:43:21.680Z,0.00
2023-03-26T03:44:21.763Z,0.00
2023-03-26T03:45:21.642Z,0.00
2023-03-26T03:46:21.644Z,0.00
2023-03-26T03:47:21.646Z,0.00
2023-03-26T03:48:21.581Z,0.00
2023-03-26T03:49:21.695Z,0.00
2023-03-26T03:50:21.627Z,0.00
2023-03-26T03:51:21.562Z,0.00
2023-03-26T03:52:21.565Z,0.00
2023-03-26T03:53:21.563Z,0.00
2023-03-26T03:54:21.558Z,0.00
2023-03-26T03:55:21.438Z,0.00
2023-03-26T03:56:21.599Z,0.00
2023-03-26T03:57:21.503Z,0.00
2023-03-26T03:58:21.487Z,0.00
2023-03-26T03:59:21.471Z,0.00
2023-03-26T04:00:21.599Z,0.00
2023-03-26T04:01:21.507Z,0.00
2023-03-26T04:02:21.595Z,0.00
2023-03-26T04:03:34.187Z,0.00
2023-03-26T04:04:21.543Z,0.00
2023-03-26T04:05:21.448Z,0.00
2023-03-26T04:06:21.465Z,0.00
2023-03-26T04:07:21.474Z,0.00
2023-03-26T04:08:21.377Z,0.00
2023-03-26T04:09:21.375Z,0.00
2023-03-26T04:10:21.384Z,0.00
2023-03-26T04:11:21.400Z,0.00
2023-03-26T04:12:21.401Z,0.00
2023-03-26T04:13:21.418Z,0.00
2023-03-26T04:14:21.340Z,0.00
2023-03-26T04:15:21.351Z,0.00
2023-03-26T04:16:21.360Z,0.00
2023-03-26T04:17:21.310Z,0.00
2023-03-26T04:18:21.358Z,0.00
2023-03-26T04:19:21.264Z,0.00
2023-03-26T04:20:21.149Z,0.00
2023-03-26T04:21:21.315Z,0.00
2023-03-26T04:22:21.246Z,0.00
2023-03-26T04:23:21.264Z,0.00
2023-03-26T04:24:21.267Z,0.00
2023-03-26T04:25:21.288Z,0.00
2023-03-26T04:26:21.207Z,0.00
2023-03-26T04:27:21.209Z,0.00
2023-03-26T04:28:21.205Z,0.00
2023-03-26T04:29:21.193Z,0.00
2023-03-26T04:30:21.181Z,0.00
2023-03-26T04:31:21.028Z,0.00
2023-03-26T04:32:21.034Z,0.00
2023-03-26T04:33:21.123Z,0.00
2023-03-26T04:34:21.250Z,0.00
2023-03-26T04:35:21.188Z,0.00
2023-03-26T04:36:21.139Z,0.00
2023-03-26T04:37:21.148Z,0.00
2023-03-26T04:38:21.077Z,0.00
2023-03-26T04:39:21.079Z,0.00
2023-03-26T04:40:21.183Z,0.00
2023-03-26T04:41:21.038Z,0.00
2023-03-26T04:42:21.038Z,0.00
2023-03-26T04:43:21.052Z,0.00
2023-03-26T04:44:21.118Z,0.00
2023-03-26T04:45:21.030Z,0.00
2023-03-26T04:46:20.854Z,0.00
2023-03-26T04:47:20.929Z,1.00
2023-03-26T04:48:20.976Z,0.00
2023-03-26T04:49:20.963Z,1.00
2023-03-26T04:50:21.030Z,1.00
2023-03-26T04:51:20.995Z,1.00
2023-03-26T04:52:20.979Z,0.00
2023-03-26T04:53:20.887Z,2.00
2023-03-26T04:54:20.865Z,2.00
2023-03-26T04:55:20.928Z,2.00
2023-03-26T04:56:20.928Z,2.00
2023-03-26T04:57:20.838Z,2.00
2023-03-26T04:58:20.820Z,1.00
2023-03-26T04:59:20.815Z,1.00
2023-03-26T05:00:20.820Z,2.00
2023-03-26T05:01:20.915Z,2.00
2023-03-26T05:02:20.808Z,2.00
2023-03-26T05:03:20.885Z,1.00
2023-03-26T05:04:20.784Z,1.00
2023-03-26T05:05:20.796Z,6.00
2023-03-26T05:06:20.768Z,3.00
2023-03-26T05:07:20.813Z,3.00
2023-03-26T05:08:20.692Z,4.00
2023-03-26T05:09:20.764Z,6.00
2023-03-26T05:10:20.715Z,6.00
2023-03-26T05:11:20.774Z,19.00
2023-03-26T05:12:20.688Z,21.00
2023-03-26T05:13:20.680Z,29.00
2023-03-26T05:14:20.668Z,24.00
2023-03-26T05:15:20.650Z,24.00
2023-03-26T05:16:20.650Z,27.00
2023-03-26T05:17:20.673Z,28.00
2023-03-26T05:18:20.460Z,35.00
2023-03-26T05:19:20.609Z,62.00
2023-03-26T05:20:20.660Z,58.00
2023-03-26T05:21:20.626Z,55.00
2023-03-26T05:22:20.596Z,51.00
2023-03-26T05:23:20.664Z,53.00
2023-03-26T05:24:20.644Z,64.00
2023-03-26T05:25:20.557Z,77.00
2023-03-26T05:26:20.518Z,89.00
2023-03-26T05:27:20.546Z,91.00
2023-03-26T05:28:20.601Z,86.00
2023-03-26T05:29:20.482Z,97.00
2023-03-26T05:30:20.516Z,110.00
2023-03-26T05:31:20.467Z,116.00
2023-03-26T05:32:20.438Z,132.00
2023-03-26T05:33:20.528Z,143.00
2023-03-26T05:34:20.525Z,117.00
2023-03-26T05:35:20.470Z,136.00
2023-03-26T05:36:20.423Z,164.00
2023-03-26T05:37:20.455Z,174.00
2023-03-26T05:38:20.394Z,180.00
2023-03-26T05:39:20.473Z,202.00
2023-03-26T05:40:20.368Z,184.00
2023-03-26T05:41:20.356Z,209.00
2023-03-26T05:42:20.352Z,185.00
2023-03-26T05:43:20.337Z,176.00
2023-03-26T05:44:20.396Z,168.00
2023-03-26T05:45:20.359Z,179.00
2023-03-26T05:46:20.403Z,149.00
2023-03-26T05:47:20.309Z,146.00
2023-03-26T05:48:20.271Z,165.00
2023-03-26T05:49:20.151Z,174.00
2023-03-26T05:50:20.302Z,154.00
2023-03-26T05:51:20.287Z,156.00
2023-03-26T05:52:20.200Z,163.00
2023-03-26T05:53:20.334Z,162.00
2023-03-26T05:54:20.322Z,156.00
2023-03-26T05:55:20.356Z,155.00
2023-03-26T05:56:20.240Z,196.00
2023-03-26T05:57:20.280Z,217.00
2023-03-26T05:58:20.176Z,235.00
2023-03-26T05:59:20.233Z,281.00
2023-03-26T06:00:20.025Z,289.00
2023-03-26T06:01:20.322Z,266.00
2023-03-26T06:02:20.180Z,240.00
2023-03-26T06:03:20.342Z,259.00
2023-03-26T06:04:20.270Z,284.00
2023-03-26T06:05:20.103Z,318.00
2023-03-26T06:06:20.098Z,306.00
2023-03-26T06:07:20.224Z,302.00
2023-03-26T06:08:20.108Z,319.00
2023-03-26T06:09:20.098Z,273.00
2023-03-26T06:10:20.240Z,294.00
2023-03-26T06:11:20.039Z,345.00
2023-03-26T06:12:19.923Z,444.00
2023-03-26T06:13:19.945Z,462.00
2023-03-26T06:14:19.876Z,422.00
2023-03-26T06:15:19.934Z,380.00
2023-03-26T06:16:26.957Z,376.00
2023-03-26T06:17:19.940Z,404.00
2023-03-26T06:18:20.037Z,437.00
2023-03-26T06:19:20.021Z,489.00
2023-03-26T06:20:19.969Z,522.00
2023-03-26T06:21:19.967Z,483.00
2023-03-26T06:22:19.883Z,455.00
2023-03-26T06:23:19.969Z,428.00
2023-03-26T06:24:19.802Z,419.00
2023-03-26T06:25:19.829Z,538.00
2023-03-26T06:26:19.753Z,571.00
2023-03-26T06:27:19.805Z,605.00
2023-03-26T06:28:19.894Z,622.00
2023-03-26T06:29:19.956Z,525.00
2023-03-26T06:30:19.708Z,472.00
2023-03-26T06:31:19.781Z,570.00
2023-03-26T06:32:20.612Z,614.00
2023-03-26T06:33:19.690Z,663.00
2023-03-26T06:34:19.739Z,704.00
2023-03-26T06:35:19.671Z,689.00
2023-03-26T06:36:19.760Z,675.00
2023-03-26T06:37:19.670Z,605.00
2023-03-26T06:38:19.921Z,554.00
2023-03-26T06:39:19.824Z,546.00
2023-03-26T06:40:19.674Z,554.00
2023-03-26T06:41:19.750Z,533.00
2023-03-26T06:42:19.755Z,567.00
2023-03-26T06:43:19.590Z,562.00
2023-03-26T06:44:19.854Z,577.00
2023-03-26T06:45:19.625Z,617.00
2023-03-26T06:46:19.646Z,714.00
2023-03-26T06:47:19.717Z,801.00
2023-03-26T06:48:19.602Z,827.00
2023-03-26T06:49:19.784Z,953.00
2023-03-26T06:50:19.546Z,1139.00
2023-03-26T06:51:19.512Z,1146.00
2023-03-26T06:52:19.502Z,1135.00
2023-03-26T06:53:19.507Z,929.00
2023-03-26T06:54:19.527Z,776.00
2023-03-26T06:55:19.484Z,733.00
2023-03-26T06:56:19.513Z,700.00
2023-03-26T06:57:19.464Z,709.00
2023-03-26T06:58:19.432Z,693.00
2023-03-26T06:59:19.587Z,575.00
2023-03-26T07:00:19.409Z,415.00
2023-03-26T07:01:19.489Z,424.00
2023-03-26T07:02:19.443Z,473.00
2023-03-26T07:03:19.553Z,497.00
2023-03-26T07:04:19.463Z,564.00
2023-03-26T07:05:19.404Z,560.00
2023-03-26T07:06:19.521Z,602.00
2023-03-26T07:07:19.438Z,586.00
2023-03-26T07:08:19.509Z,573.00
2023-03-26T07:09:19.388Z,582.00
2023-03-26T07:10:19.386Z,601.00
2023-03-26T07:11:19.330Z,642.00
2023-03-26T07:12:19.343Z,645.00
2023-03-26T07:13:19.409Z,685.00
2023-03-26T07:14:19.414Z,771.00
2023-03-26T07:15:19.396Z,846.00
2023-03-26T07:16:19.494Z,922.00
2023-03-26T07:17:19.306Z,992.00
2023-03-26T07:18:19.280Z,1133.00
2023-03-26T07:19:19.223Z,1338.00
2023-03-26T07:20:19.232Z,1437.00
2023-03-26T07:21:19.358Z,1406.00
2023-03-26T07:22:19.330Z,1562.00
2023-03-26T07:23:19.288Z,1447.00
2023-03-26T07:24:19.324Z,1520.00
2023-03-26T07:25:19.185Z,1512.00
2023-03-26T07:26:19.214Z,1458.00
2023-03-26T07:27:19.201Z,1440.00
2023-03-26T07:28:19.307Z,1463.00
2023-03-26T07:29:19.182Z,1518.00
2023-03-26T07:30:19.127Z,1733.00
2023-03-26T07:31:19.489Z,2083.00
2023-03-26T07:32:19.276Z,2221.00
2023-03-26T07:33:19.236Z,2308.00
2023-03-26T07:34:19.057Z,2508.00
2023-03-26T07:35:19.188Z,2607.00
2023-03-26T07:36:19.064Z,2807.00
2023-03-26T07:37:19.281Z,2875.00
2023-03-26T07:38:19.161Z,3288.00
2023-03-26T07:39:19.279Z,3586.00
2023-03-26T07:40:19.150Z,3638.00
2023-03-26T07:41:19.114Z,3534.00
2023-03-26T07:42:18.954Z,3396.00
2023-03-26T07:43:18.982Z,3281.00
2023-03-26T07:44:19.165Z,3201.00
2023-03-26T07:45:18.930Z,3121.00
2023-03-26T07:46:19.141Z,3051.00
2023-03-26T07:47:19.112Z,2989.00
2023-03-26T07:48:19.049Z,2912.00
2023-03-26T07:49:19.101Z,2758.00
2023-03-26T07:50:19.140Z,2688.00
2023-03-26T07:51:19.052Z,2606.00
2023-03-26T07:52:19.202Z,2430.00
2023-03-26T07:53:19.043Z,2330.00
2023-03-26T07:54:18.903Z,2453.00
2023-03-26T07:55:18.984Z,2497.00
2023-03-26T07:56:18.989Z,2538.00
2023-03-26T07:57:18.953Z,2481.00
2023-03-26T07:58:18.922Z,2364.00
2023-03-26T07:59:19.000Z,2370.00
2023-03-26T08:00:18.934Z,2442.00
2023-03-26T08:01:18.900Z,2344.00
2023-03-26T08:02:19.038Z,2400.00
2023-03-26T08:03:19.140Z,2470.00
2023-03-26T08:04:24.614Z,2158.00
2023-03-26T08:05:19.096Z,2029.00
2023-03-26T08:06:18.874Z,1914.00
2023-03-26T08:07:18.710Z,1677.00
2023-03-26T08:08:18.887Z,1617.00
2023-03-26T08:09:18.883Z,1554.00
2023-03-26T08:10:18.963Z,1341.00
2023-03-26T08:11:18.682Z,1326.00
2023-03-26T08:12:18.858Z,1262.00
2023-03-26T08:13:18.838Z,1235.00
2023-03-26T08:14:18.846Z,1187.00
2023-03-26T08:15:18.736Z,1215.00
2023-03-26T08:16:18.858Z,1282.00
2023-03-26T08:17:18.737Z,1348.00
2023-03-26T08:18:18.633Z,1391.00
2023-03-26T08:19:18.717Z,1400.00
2023-03-26T08:20:18.728Z,1416.00
2023-03-26T08:21:18.605Z,1400.00
2023-03-26T08:22:18.744Z,1352.00
2023-03-26T08:23:18.735Z,1459.00
2023-03-26T08:24:18.723Z,1421.00
2023-03-26T08:25:18.816Z,1451.00
2023-03-26T08:26:18.741Z,1455.00
2023-03-26T08:27:18.744Z,1465.00
2023-03-26T08:28:18.654Z,1547.00
2023-03-26T08:29:18.644Z,1531.00
2023-03-26T08:30:18.639Z,1596.00
2023-03-26T08:31:18.653Z,1558.00
2023-03-26T08:32:18.714Z,1541.00
2023-03-26T08:33:18.625Z,1495.00
2023-03-26T08:34:18.612Z,1464.00
2023-03-26T08:35:18.633Z,1411.00
2023-03-26T08:36:18.384Z,1441.00
2023-03-26T08:37:18.759Z,1418.00
2023-03-26T08:38:18.629Z,1327.00
2023-03-26T08:39:18.397Z,1440.00
2023-03-26T08:40:18.556Z,1601.00
2023-03-26T08:41:18.377Z,1708.00
2023-03-26T08:42:18.507Z,1800.00
2023-03-26T08:43:18.462Z,2092.00
2023-03-26T08:44:18.338Z,2219.00
2023-03-26T08:45:18.297Z,2350.00
2023-03-26T08:46:18.584Z,2473.00
2023-03-26T08:47:18.564Z,2819.00
2023-03-26T08:48:18.332Z,3053.00
2023-03-26T08:49:18.482Z,3307.00
2023-03-26T08:50:18.454Z,3395.00
2023-03-26T08:51:18.256Z,3643.00
2023-03-26T08:52:18.370Z,4057.00
2023-03-26T08:53:18.262Z,4607.00
2023-03-26T08:54:18.238Z,5303.00
2023-03-26T08:55:18.246Z,5889.00
2023-03-26T08:56:18.388Z,6288.00
2023-03-26T08:57:18.400Z,6568.00
2023-03-26T08:58:18.411Z,6862.00
2023-03-26T08:59:18.297Z,6954.00
2023-03-26T09:00:18.426Z,6581.00
2023-03-26T09:01:18.365Z,6283.00
2023-03-26T09:02:18.373Z,5771.00
2023-03-26T09:03:18.303Z,5525.00
2023-03-26T09:04:18.404Z,5364.00
2023-03-26T09:05:18.380Z,5000.00
2023-03-26T09:06:18.427Z,4695.00
2023-03-26T09:07:18.359Z,4324.00
2023-03-26T09:08:18.165Z,3978.00
2023-03-26T09:09:19.097Z,3794.00
2023-03-26T09:10:18.144Z,3733.00
2023-03-26T09:11:18.171Z,3700.00
2023-03-26T09:12:18.080Z,3518.00
2023-03-26T09:13:18.089Z,3297.00
2023-03-26T09:14:18.007Z,3185.00
2023-03-26T09:15:18.041Z,3101.00
2023-03-26T09:16:18.044Z,3028.00
2023-03-26T09:17:18.045Z,2985.00
2023-03-26T09:18:18.032Z,2864.00
2023-03-26T09:19:18.013Z,2856.00
2023-03-26T09:20:17.961Z,2784.00
2023-03-26T09:21:17.973Z,2710.00
2023-03-26T09:22:17.949Z,2802.00
2023-03-26T09:23:17.925Z,2808.00
2023-03-26T09:24:17.907Z,2727.00
2023-03-26T09:25:17.900Z,2724.00
2023-03-26T09:26:17.909Z,2677.00
2023-03-26T09:27:17.914Z,2767.00
2023-03-26T09:28:17.875Z,2825.00
2023-03-26T09:29:18.036Z,2844.00
2023-03-26T09:30:17.996Z,2909.00
2023-03-26T09:31:18.003Z,2903.00
2023-03-26T09:32:17.937Z,2936.00
2023-03-26T09:33:18.079Z,3063.00
2023-03-26T09:34:17.968Z,3130.00
2023-03-26T09:35:17.929Z,3156.00
2023-03-26T09:36:17.958Z,3190.00
2023-03-26T09:37:17.817Z,3260.00
2023-03-26T09:38:17.894Z,3335.00
2023-03-26T09:39:17.865Z,3434.00
2023-03-26T09:40:17.919Z,3539.00
2023-03-26T09:41:17.910Z,3636.00
2023-03-26T09:42:17.952Z,3695.00
2023-03-26T09:43:17.840Z,3691.00
2023-03-26T09:44:17.971Z,3656.00
2023-03-26T09:45:17.839Z,3630.00
2023-03-26T09:46:17.866Z,3623.00
2023-03-26T09:47:17.789Z,3622.00
2023-03-26T09:48:17.765Z,3607.00
2023-03-26T09:49:17.823Z,3606.00
2023-03-26T09:50:17.799Z,3618.00
2023-03-26T09:51:17.785Z,3630.00
2023-03-26T09:52:17.754Z,3631.00
2023-03-26T09:53:17.730Z,3629.00
2023-03-26T09:54:17.858Z,3628.00
2023-03-26T09:55:17.758Z,3595.00
2023-03-26T09:56:17.733Z,3595.00
2023-03-26T09:57:17.808Z,3660.00
2023-03-26T09:58:17.703Z,3751.00
2023-03-26T09:59:17.493Z,3807.00
2023-03-26T10:00:17.748Z,3825.00
2023-03-26T10:01:17.539Z,3846.00
2023-03-26T10:02:17.667Z,3857.00
2023-03-26T10:03:17.633Z,3883.00
2023-03-26T10:04:17.605Z,3906.00
2023-03-26T10:05:17.525Z,3897.00
2023-03-26T10:06:17.502Z,3881.00
2023-03-26T10:07:17.487Z,3855.00
2023-03-26T10:08:17.421Z,3853.00
2023-03-26T10:09:17.431Z,3864.00
2023-03-26T10:10:17.564Z,3901.00
2023-03-26T10:11:17.447Z,3951.00
2023-03-26T10:12:17.411Z,4013.00
2023-03-26T10:13:17.566Z,4059.00
2023-03-26T10:14:17.422Z,4063.00
2023-03-26T10:15:17.468Z,4067.00
2023-03-26T10:16:17.394Z,4083.00
2023-03-26T10:17:17.553Z,4113.00
2023-03-26T10:18:27.473Z,4119.00
2023-03-26T10:19:17.964Z,4106.00
2023-03-26T10:20:17.361Z,4098.00
2023-03-26T10:21:17.297Z,4074.00
2023-03-26T10:22:17.587Z,4015.00
2023-03-26T10:23:17.310Z,3948.00
2023-03-26T10:24:17.384Z,3902.00
2023-03-26T10:25:17.449Z,3908.00
2023-03-26T10:26:17.426Z,3884.00
2023-03-26T10:27:17.413Z,3818.00
2023-03-26T10:28:17.537Z,3771.00
2023-03-26T10:29:17.334Z,3707.00
2023-03-26T10:30:17.435Z,3665.00
2023-03-26T10:31:17.277Z,3646.00
2023-03-26T10:32:17.304Z,3616.00
2023-03-26T10:33:17.323Z,3580.00
2023-03-26T10:34:28.471Z,3559.00
2023-03-26T10:35:17.321Z,3525.00
2023-03-26T10:36:17.299Z,3479.00
2023-03-26T10:37:17.292Z,3409.00
2023-03-26T10:38:17.402Z,3345.00
2023-03-26T10:39:38.114Z,3253.00
2023-03-26T10:40:17.285Z,3158.00
2023-03-26T10:41:17.197Z,3017.00
2023-03-26T10:42:17.181Z,2887.00
2023-03-26T10:43:17.248Z,2800.00
2023-03-26T10:44:17.346Z,2744.00
2023-03-26T10:45:17.310Z,2691.00
2023-03-26T10:46:17.195Z,2694.00
2023-03-26T10:47:17.132Z,2702.00
2023-03-26T10:48:17.127Z,2727.00
2023-03-26T10:49:17.004Z,2791.00
2023-03-26T10:50:23.235Z,2860.00
2023-03-26T10:51:17.258Z,2924.00
2023-03-26T10:52:17.151Z,2963.00
2023-03-26T10:53:17.110Z,2980.00
2023-03-26T10:54:17.052Z,2989.00
2023-03-26T10:55:17.095Z,2990.00
2023-03-26T10:56:17.042Z,2991.00
2023-03-26T10:57:17.166Z,2996.00
2023-03-26T10:58:17.092Z,2986.00
2023-03-26T10:59:17.018Z,2988.00
2023-03-26T11:00:17.047Z,2995.00
2023-03-26T11:01:17.010Z,3002.00
2023-03-26T11:02:17.112Z,3011.00
2023-03-26T11:03:17.014Z,3012.00
2023-03-26T11:04:17.011Z,3007.00
2023-03-26T11:05:17.023Z,3014.00
2023-03-26T11:06:16.994Z,3021.00
2023-03-26T11:07:17.027Z,3012.00
2023-03-26T11:08:16.779Z,3009.00
2023-03-26T11:09:16.943Z,2999.00
2023-03-26T11:10:16.810Z,2988.00
2023-03-26T11:11:16.746Z,2978.00
2023-03-26T11:12:26.532Z,2967.00
2023-03-26T11:13:16.992Z,2931.00
2023-03-26T11:14:24.453Z,2841.00
2023-03-26T11:15:16.762Z,2745.00
2023-03-26T11:16:16.810Z,2643.00
2023-03-26T11:17:39.412Z,2536.00
2023-03-26T11:18:16.701Z,2459.00
2023-03-26T11:19:16.920Z,2391.00
2023-03-26T11:20:16.706Z,2318.00
2023-03-26T11:21:19.371Z,2222.00
2023-03-26T11:22:16.684Z,2133.00
2023-03-26T11:23:16.747Z,2027.00
2023-03-26T11:24:16.961Z,1897.00
2023-03-26T11:25:16.842Z,1737.00
2023-03-26T11:26:16.743Z,1583.00
2023-03-26T11:27:18.410Z,1444.00
2023-03-26T11:28:16.717Z,1330.00
2023-03-26T11:29:32.334Z,1232.00
2023-03-26T11:30:16.628Z,1150.00
2023-03-26T11:31:16.726Z,1082.00
2023-03-26T11:32:16.576Z,1017.00
2023-03-26T11:33:16.738Z,986.00
2023-03-26T11:34:16.647Z,963.00
2023-03-26T11:35:16.726Z,929.00
2023-03-26T11:36:16.606Z,898.00
2023-03-26T11:37:16.481Z,891.00
2023-03-26T11:38:16.528Z,891.00
2023-03-26T11:39:16.603Z,882.00
2023-03-26T11:40:16.761Z,876.00
2023-03-26T11:41:16.578Z,892.00
2023-03-26T11:42:16.507Z,904.00
2023-03-26T11:43:16.430Z,915.00
2023-03-26T11:44:16.461Z,902.00
2023-03-26T11:45:16.384Z,897.00
2023-03-26T11:46:16.554Z,918.00
2023-03-26T11:47:16.365Z,964.00
2023-03-26T11:48:16.500Z,1010.00
2023-03-26T11:49:16.357Z,1054.00
2023-03-26T11:50:16.529Z,1070.00
2023-03-26T11:51:16.498Z,1092.00
2023-03-26T11:52:16.372Z,1143.00
2023-03-26T11:53:16.478Z,1201.00
2023-03-26T11:54:16.521Z,1233.00
2023-03-26T11:55:16.456Z,1247.00
2023-03-26T11:56:16.490Z,1269.00
2023-03-26T11:57:16.500Z,1305.00
2023-03-26T11:58:16.416Z,1356.00
2023-03-26T11:59:16.455Z,1396.00
2023-03-26T12:00:16.364Z,1396.00
2023-03-26T12:01:16.357Z,1400.00
2023-03-26T12:02:16.457Z,1394.00
2023-03-26T12:03:16.426Z,1395.00
2023-03-26T12:04:16.399Z,1413.00
2023-03-26T12:05:16.172Z,1439.00
2023-03-26T12:06:16.176Z,1455.00
2023-03-26T12:07:16.172Z,1473.00
2023-03-26T12:08:16.190Z,1482.00
2023-03-26T12:09:16.132Z,1495.00
2023-03-26T12:10:18.951Z,1489.00
2023-03-26T12:11:16.272Z,1483.00
2023-03-26T12:12:16.492Z,1495.00
2023-03-26T12:13:16.325Z,1520.00
2023-03-26T12:14:16.100Z,1550.00
2023-03-26T12:15:16.280Z,1552.00
2023-03-26T12:16:16.341Z,1563.00
2023-03-26T12:17:16.161Z,1590.00
2023-03-26T12:18:16.082Z,1591.00
2023-03-26T12:19:16.260Z,1573.00
2023-03-26T12:20:16.027Z,1538.00
2023-03-26T12:21:16.195Z,1519.00
2023-03-26T12:22:16.158Z,1553.00
2023-03-26T12:23:16.002Z,1556.00
2023-03-26T12:24:16.085Z,1549.00
2023-03-26T12:25:15.979Z,1593.00
2023-03-26T12:26:16.027Z,1637.00
2023-03-26T12:27:15.990Z,1680.00
2023-03-26T12:28:16.004Z,1735.00
2023-03-26T12:29:15.989Z,1782.00
2023-03-26T12:30:15.939Z,1819.00
2023-03-26T12:31:15.912Z,1849.00
2023-03-26T12:32:15.935Z,1856.00
2023-03-26T12:33:15.933Z,1873.00
2023-03-26T12:34:15.899Z,1889.00
2023-03-26T12:35:15.852Z,1913.00
2023-03-26T12:36:15.861Z,1943.00
2023-03-26T12:37:15.835Z,1953.00
2023-03-26T12:38:15.832Z,1965.00